Weather at Karratha Airport

Public forecast

Using degrees Celsius for public forecast. Weather courtesy of forecast.io.

Closest aviation weather report (METAR) to Karratha Airport

Closest report is Port Hedland International Airport, 106.1 nm (196.5 km) E.

2024/04/21 19:30 (retrieved 31 minutes ago)

YPPD 211930Z AUTO 18007KT 9999 // NCD 20/14 Q1014 RF000/0000

Closest aviation forecast (TAF) to Karratha Airport

Closest forecast is Port Hedland International Airport, 106.1 nm (196.5 km) E.

2024/04/21 18:36 (retrieved 1 hour ago)

TAF YPPD 211714Z 2118/2218 16008KT CAVOK FM212200 11014KT CAVOK FM220400 05014KT CAVOK FM221000 35008KT CAVOK FM221400 15005KT CAVOK